Time;durP1;ratioP1;P1;durP2;ratioP2;P2;SDS_P1;SDS_P2;PMS_P1;PMS_P2;Temp;Humidity;BMP_temperature;BMP_pressure;BME280_temperature;BME280_humidity;BME280_pressure;Samples;Min_cycle;Max_cycle;Signal;HPM_P1;HPM_P2
2021/09/16 00:00:17;;;;;;;2.77;0.80;;;15.80;99.90;;;;;;5016993;28;20187;-74
2021/09/16 00:02:42;;;;;;;2.77;0.70;;;15.80;99.90;;;;;;4999986;28;20191;-73
2021/09/16 00:05:09;;;;;;;2.40;0.90;;;15.70;99.90;;;;;;5000020;28;20214;-74
2021/09/16 00:07:35;;;;;;;4.90;0.77;;;15.70;99.90;;;;;;4983554;28;20195;-74
2021/09/16 00:10:00;;;;;;;2.47;0.73;;;15.70;99.90;;;;;;4998870;28;20202;-74
2021/09/16 00:12:26;;;;;;;3.97;0.77;;;15.60;99.90;;;;;;4983312;28;20237;-75
2021/09/16 00:14:51;;;;;;;3.30;0.90;;;15.60;99.90;;;;;;4999541;28;20233;-74
2021/09/16 00:17:17;;;;;;;3.40;0.97;;;15.60;99.90;;;;;;4983455;28;20290;-74
2021/09/16 00:19:43;;;;;;;3.47;1.00;;;15.50;99.90;;;;;;4999165;28;20176;-73
2021/09/16 00:22:08;;;;;;;5.03;0.93;;;15.50;99.90;;;;;;4982608;28;20180;-74
2021/09/16 00:24:34;;;;;;;3.47;0.90;;;15.40;99.90;;;;;;4982745;28;20192;-74
2021/09/16 00:26:59;;;;;;;3.00;0.60;;;15.40;99.90;;;;;;4982461;28;20249;-74
2021/09/16 00:29:25;;;;;;;1.73;0.77;;;15.30;99.90;;;;;;4982244;28;20204;-74
2021/09/16 00:31:51;;;;;;;4.17;0.80;;;15.20;99.90;;;;;;4982772;28;20211;-74
2021/09/16 00:34:16;;;;;;;1.80;0.80;;;15.10;99.90;;;;;;4982815;28;20183;-74
2021/09/16 00:36:42;;;;;;;3.37;1.00;;;15.20;99.90;;;;;;4982555;28;20203;-74
2021/09/16 00:39:07;;;;;;;2.50;0.70;;;15.10;99.90;;;;;;4981482;28;20271;-74
2021/09/16 00:41:33;;;;;;;3.73;0.87;;;15.10;99.90;;;;;;4998089;28;20180;-74
2021/09/16 00:43:58;;;;;;;4.73;1.00;;;15.00;99.90;;;;;;4998292;28;20214;-74
2021/09/16 00:46:24;;;;;;;3.27;0.70;;;15.20;99.90;;;;;;4998281;28;20200;-74
2021/09/16 00:48:50;;;;;;;4.97;1.00;;;15.20;99.90;;;;;;4981828;28;20188;-74
2021/09/16 00:51:15;;;;;;;2.73;0.93;;;15.30;99.90;;;;;;4998886;28;20194;-74
2021/09/16 00:53:41;;;;;;;3.03;0.80;;;15.20;99.90;;;;;;5014782;28;20682;-74
2021/09/16 00:56:07;;;;;;;3.57;0.80;;;15.30;99.90;;;;;;4998491;28;20674;-74
2021/09/16 00:58:37;;;;;;;3.27;0.90;;;15.30;99.90;;;;;;4982335;28;20184;-74
2021/09/16 01:01:02;;;;;;;2.80;0.90;;;15.30;99.90;;;;;;4998410;28;20211;-74
2021/09/16 01:03:28;;;;;;;3.00;0.60;;;15.40;99.90;;;;;;4981907;28;20694;-74
2021/09/16 01:05:53;;;;;;;3.93;0.97;;;15.40;99.90;;;;;;4982063;28;20729;-74
2021/09/16 01:08:19;;;;;;;5.17;0.90;;;15.40;99.90;;;;;;4998081;28;20557;-74
2021/09/16 01:10:45;;;;;;;3.80;0.60;;;15.30;99.90;;;;;;4997799;28;20230;-74
2021/09/16 01:13:10;;;;;;;2.90;0.80;;;15.30;99.90;;;;;;4998042;28;20192;-74
2021/09/16 01:15:37;;;;;;;4.23;0.83;;;15.30;99.90;;;;;;4981960;28;20617;-74
2021/09/16 01:18:03;;;;;;;2.47;0.57;;;15.30;99.90;;;;;;4998444;28;20202;-74
2021/09/16 01:20:28;;;;;;;2.33;0.70;;;15.20;99.90;;;;;;4997712;28;20175;-74
2021/09/16 01:22:54;;;;;;;1.47;0.60;;;15.10;99.90;;;;;;4998207;28;20664;-74
2021/09/16 01:25:24;;;;;;;5.57;0.80;;;15.10;99.90;;;;;;4981343;28;20237;-74
2021/09/16 01:27:50;;;;;;;2.70;0.80;;;15.00;99.90;;;;;;4981887;28;20214;-74
2021/09/16 01:30:16;;;;;;;3.33;0.60;;;15.00;99.90;;;;;;4997489;28;20294;-74
2021/09/16 01:32:41;;;;;;;4.03;0.93;;;14.90;99.90;;;;;;4985829;28;20214;-74
2021/09/16 01:35:08;;;;;;;5.60;1.43;;;14.90;99.90;;;;;;4978117;28;20204;-74
2021/09/16 01:37:33;;;;;;;1.87;0.70;;;14.90;99.90;;;;;;4977967;28;20223;-74
2021/09/16 01:39:59;;;;;;;2.87;0.90;;;14.90;99.90;;;;;;4994107;28;20180;-74
2021/09/16 01:42:24;;;;;;;3.47;0.73;;;14.90;99.90;;;;;;4978200;28;20180;-74
2021/09/16 01:44:50;;;;;;;3.77;0.50;;;14.90;99.90;;;;;;4994183;28;20268;-74
2021/09/16 01:47:15;;;;;;;5.23;0.70;;;15.00;99.90;;;;;;4977673;28;20192;-74
2021/09/16 01:49:41;;;;;;;2.50;0.60;;;14.90;99.90;;;;;;4977272;28;20346;-74
2021/09/16 01:52:06;;;;;;;5.30;0.80;;;15.00;99.90;;;;;;4994176;28;20173;-74
2021/09/16 01:54:32;;;;;;;3.60;0.80;;;15.00;99.90;;;;;;4993806;28;20176;-74
2021/09/16 01:56:57;;;;;;;3.43;0.80;;;15.00;99.90;;;;;;4977610;28;20207;-74
2021/09/16 01:59:23;;;;;;;1.97;0.60;;;15.00;99.90;;;;;;4993655;28;20187;-74
2021/09/16 02:01:48;;;;;;;5.37;0.90;;;15.00;99.90;;;;;;4994106;28;20172;-74
2021/09/16 02:04:14;;;;;;;3.70;0.97;;;14.90;99.90;;;;;;4977944;28;20172;-74
2021/09/16 02:06:40;;;;;;;1.87;0.73;;;15.00;99.90;;;;;;4977242;28;20200;-74
2021/09/16 02:09:05;;;;;;;3.93;1.00;;;15.00;99.90;;;;;;4993552;28;20203;-74
2021/09/16 02:11:31;;;;;;;4.97;1.00;;;15.00;99.90;;;;;;4993949;28;20226;-74
2021/09/16 02:13:56;;;;;;;2.63;0.77;;;15.00;99.90;;;;;;4976945;28;20184;-74
2021/09/16 02:16:22;;;;;;;2.17;0.80;;;14.90;99.90;;;;;;4977458;28;20204;-74
2021/09/16 02:18:47;;;;;;;3.03;0.90;;;15.00;99.90;;;;;;4993384;28;20290;-74
2021/09/16 02:21:13;;;;;;;6.03;0.93;;;14.90;99.90;;;;;;4993450;28;20184;-74
2021/09/16 02:23:38;;;;;;;2.00;0.70;;;14.80;99.90;;;;;;4993542;28;20191;-74
2021/09/16 02:26:04;;;;;;;2.77;0.77;;;14.80;99.90;;;;;;4993390;28;20216;-74
2021/09/16 02:28:29;;;;;;;3.17;0.90;;;14.70;99.90;;;;;;4977045;28;20195;-74
2021/09/16 02:30:55;;;;;;;3.30;1.00;;;14.60;99.90;;;;;;4993054;28;20561;-74
2021/09/16 02:33:20;;;;;;;5.20;1.00;;;14.50;99.90;;;;;;4993899;28;20266;-74
2021/09/16 02:35:51;;;;;;;3.40;0.90;;;14.50;99.90;;;;;;4993299;28;20192;-74
2021/09/16 02:38:20;;;;;;;1.50;0.90;;;14.50;99.90;;;;;;4993606;28;20644;-74
2021/09/16 02:40:46;;;;;;;6.57;0.97;;;14.40;99.90;;;;;;4977129;28;20246;-74
2021/09/16 02:43:12;;;;;;;4.27;1.10;;;14.30;99.90;;;;;;4976901;28;20640;-74
2021/09/16 02:45:37;;;;;;;6.50;1.17;;;14.30;99.90;;;;;;4993121;28;20180;-74
2021/09/16 02:48:03;;;;;;;2.80;1.03;;;14.30;99.90;;;;;;4993071;28;20230;-74
2021/09/16 02:50:28;;;;;;;5.77;1.23;;;14.30;99.90;;;;;;4976316;28;20257;-74
2021/09/16 02:52:54;;;;;;;3.33;1.60;;;14.20;99.90;;;;;;4994194;28;20289;-73
2021/09/16 02:55:19;;;;;;;4.77;1.37;;;14.30;99.90;;;;;;4976908;28;20257;-74
2021/09/16 02:57:46;;;;;;;4.27;1.43;;;14.20;99.90;;;;;;4977059;28;20278;-73
2021/09/16 03:00:12;;;;;;;4.93;1.40;;;14.30;99.90;;;;;;4977290;28;20176;-74
2021/09/16 03:02:38;;;;;;;8.03;1.67;;;14.30;99.90;;;;;;4976750;28;20180;-74
2021/09/16 03:05:04;;;;;;;6.67;1.80;;;14.30;99.90;;;;;;4993293;28;20234;-74
2021/09/16 03:07:29;;;;;;;3.60;1.60;;;14.30;99.90;;;;;;4993228;28;20207;-74
2021/09/16 03:09:55;;;;;;;5.03;1.67;;;14.40;99.90;;;;;;4976567;28;20212;-74
2021/09/16 03:12:20;;;;;;;4.30;1.60;;;14.50;99.90;;;;;;4976463;28;20190;-74
2021/09/16 03:14:46;;;;;;;6.03;2.10;;;14.40;99.90;;;;;;4993315;28;20268;-74
2021/09/16 03:17:11;;;;;;;5.00;1.80;;;14.40;99.90;;;;;;4992226;28;20196;-74
2021/09/16 03:19:37;;;;;;;4.50;1.73;;;14.40;99.90;;;;;;4975144;28;20184;-74
2021/09/16 03:22:03;;;;;;;2.23;1.53;;;14.40;99.90;;;;;;4976003;28;20188;-74
2021/09/16 03:24:28;;;;;;;5.13;1.87;;;14.30;99.90;;;;;;4992778;28;20559;-74
2021/09/16 03:26:54;;;;;;;4.53;1.90;;;14.30;99.90;;;;;;4995842;28;20216;-74
2021/09/16 03:29:20;;;;;;;6.23;1.90;;;14.40;99.90;;;;;;4980017;28;20294;-74
2021/09/16 03:31:45;;;;;;;5.70;2.13;;;14.30;99.90;;;;;;4980879;28;20177;-74
2021/09/16 03:34:11;;;;;;;4.30;1.90;;;14.30;99.90;;;;;;4996517;28;20172;-74
2021/09/16 03:36:37;;;;;;;5.80;2.27;;;14.20;99.90;;;;;;4978505;28;20207;-75
2021/09/16 03:39:02;;;;;;;3.53;2.03;;;14.20;99.90;;;;;;4994297;28;20172;-75
2021/09/16 03:41:28;;;;;;;6.77;2.30;;;14.20;99.90;;;;;;4994793;28;20676;-75
2021/09/16 03:43:53;;;;;;;3.93;2.00;;;14.10;99.90;;;;;;4994535;28;20203;-75
2021/09/16 03:46:19;;;;;;;4.63;2.10;;;14.20;99.90;;;;;;4994072;28;20199;-75
2021/09/16 03:48:44;;;;;;;5.03;1.90;;;14.10;99.90;;;;;;4994265;28;20186;-75
2021/09/16 03:51:10;;;;;;;5.80;2.10;;;14.00;99.90;;;;;;4995771;28;20291;-74
2021/09/16 03:53:36;;;;;;;4.53;2.00;;;14.00;99.90;;;;;;4995938;28;20172;-74
2021/09/16 03:56:01;;;;;;;6.03;2.03;;;14.00;99.90;;;;;;4996724;28;20206;-74
2021/09/16 03:58:27;;;;;;;4.07;1.90;;;14.00;99.90;;;;;;4980055;28;20684;-74
2021/09/16 04:00:53;;;;;;;4.13;1.80;;;14.00;99.90;;;;;;4996110;28;20184;-74
2021/09/16 04:03:18;;;;;;;3.07;1.60;;;14.00;99.90;;;;;;4996303;28;20675;-74
2021/09/16 04:05:44;;;;;;;4.10;1.73;;;13.90;99.90;;;;;;4978732;28;20212;-75
2021/09/16 04:08:09;;;;;;;5.57;2.20;;;13.90;99.90;;;;;;4977350;28;20184;-75
2021/09/16 04:10:35;;;;;;;3.47;1.60;;;13.90;99.90;;;;;;4992986;28;20215;-75
2021/09/16 04:13:00;;;;;;;3.13;1.90;;;13.80;99.90;;;;;;4994973;28;20188;-74
2021/09/16 04:15:26;;;;;;;5.30;1.93;;;13.80;99.90;;;;;;4995340;28;20234;-75
2021/09/16 04:17:52;;;;;;;4.57;2.00;;;13.80;99.90;;;;;;4994199;28;20172;-77
2021/09/16 04:20:17;;;;;;;3.30;1.93;;;13.80;99.90;;;;;;4993582;28;20185;-76
2021/09/16 04:22:43;;;;;;;4.40;1.80;;;13.80;99.90;;;;;;4993569;28;20652;-75
2021/09/16 04:25:09;;;;;;;3.97;1.83;;;13.80;99.90;;;;;;4994071;28;20179;-75
2021/09/16 04:27:34;;;;;;;4.60;1.70;;;13.80;99.90;;;;;;4977412;28;20215;-74
2021/09/16 04:30:00;;;;;;;5.47;2.03;;;13.80;99.90;;;;;;4993589;28;20279;-75
2021/09/16 04:32:25;;;;;;;4.20;1.90;;;13.80;99.90;;;;;;4993722;28;20188;-75
2021/09/16 04:34:51;;;;;;;4.30;2.00;;;13.70;99.90;;;;;;4993497;28;20263;-74
2021/09/16 04:37:17;;;;;;;4.77;1.97;;;13.60;99.90;;;;;;4993363;28;20546;-75
2021/09/16 04:39:42;;;;;;;4.33;2.17;;;13.60;99.90;;;;;;4977063;28;20207;-75
2021/09/16 04:42:08;;;;;;;4.60;2.07;;;13.50;99.90;;;;;;4993636;28;20187;-75
2021/09/16 04:44:34;;;;;;;3.50;2.10;;;13.50;99.90;;;;;;4977024;28;20188;-75
2021/09/16 04:46:59;;;;;;;4.80;2.07;;;13.50;99.90;;;;;;4993340;28;20254;-75
2021/09/16 04:49:27;;;;;;;4.90;1.90;;;13.50;99.90;;;;;;4992999;28;20258;-74
2021/09/16 04:51:52;;;;;;;3.63;1.90;;;13.50;99.90;;;;;;4993398;28;20177;-75
2021/09/16 04:54:18;;;;;;;7.63;1.90;;;13.50;99.90;;;;;;4993374;28;20177;-75
2021/09/16 04:56:43;;;;;;;5.37;1.90;;;13.50;99.90;;;;;;4994366;28;20204;-80
2021/09/16 04:59:09;;;;;;;7.67;2.40;;;13.40;99.90;;;;;;4981273;28;20227;-82
2021/09/16 05:01:35;;;;;;;3.27;2.00;;;13.40;99.90;;;;;;4983581;28;20751;-79
2021/09/16 05:04:00;;;;;;;5.57;2.07;;;13.30;99.90;;;;;;4984528;28;20192;-82
2021/09/16 05:06:26;;;;;;;5.87;2.30;;;13.30;99.90;;;;;;4998508;28;20219;-81
2021/09/16 05:08:52;;;;;;;4.47;2.00;;;13.30;99.90;;;;;;4981601;28;20168;-81
2021/09/16 05:11:17;;;;;;;5.37;2.30;;;13.30;99.90;;;;;;4982165;28;20203;-81
2021/09/16 05:13:43;;;;;;;4.03;2.03;;;13.30;99.90;;;;;;4980513;28;20188;-79
2021/09/16 05:16:08;;;;;;;4.37;2.10;;;13.30;99.90;;;;;;4984643;28;20231;-79
2021/09/16 05:18:34;;;;;;;7.43;2.20;;;13.30;99.90;;;;;;4987980;28;20180;-80
2021/09/16 05:20:59;;;;;;;5.27;2.07;;;13.40;99.90;;;;;;4995078;28;20184;-79
2021/09/16 05:23:25;;;;;;;8.47;2.60;;;13.40;99.90;;;;;;4993377;28;20212;-79
2021/09/16 05:25:50;;;;;;;5.87;2.33;;;13.40;99.90;;;;;;4978934;28;20586;-82
2021/09/16 05:28:16;;;;;;;6.43;2.33;;;13.40;99.90;;;;;;4974856;28;20636;-79
2021/09/16 05:30:42;;;;;;;8.47;2.60;;;13.50;99.90;;;;;;4972782;28;20692;-79
2021/09/16 05:33:09;;;;;;;8.20;2.97;;;13.50;99.90;;;;;;4965034;28;20173;-79
2021/09/16 05:35:38;;;;;;;5.60;2.77;;;13.60;99.90;;;;;;4994252;28;20191;-79
2021/09/16 05:38:04;;;;;;;5.70;2.40;;;13.70;99.90;;;;;;4976705;28;20268;-75
2021/09/16 05:40:30;;;;;;;7.63;2.70;;;13.70;99.90;;;;;;4996618;28;20247;-75
2021/09/16 05:42:56;;;;;;;4.63;2.60;;;13.80;99.90;;;;;;4995724;28;20179;-75
2021/09/16 05:45:21;;;;;;;8.30;2.67;;;13.90;99.90;;;;;;4995683;28;20223;-75
2021/09/16 05:47:47;;;;;;;5.47;2.47;;;13.90;99.90;;;;;;4994932;28;20270;-75
2021/09/16 05:50:12;;;;;;;7.10;2.60;;;13.90;99.90;;;;;;5011632;28;20207;-75
2021/09/16 05:52:38;;;;;;;4.93;2.77;;;13.90;99.90;;;;;;4995579;28;20614;-75
2021/09/16 05:55:05;;;;;;;6.77;2.60;;;14.00;99.90;;;;;;5012071;28;20249;-75
2021/09/16 05:57:30;;;;;;;5.97;2.50;;;14.10;99.90;;;;;;5011817;28;20199;-75
2021/09/16 05:59:56;;;;;;;5.37;2.30;;;14.10;99.90;;;;;;4995060;28;20191;-75
2021/09/16 06:02:21;;;;;;;8.20;2.80;;;14.10;99.90;;;;;;5011649;28;20183;-75
2021/09/16 06:04:47;;;;;;;8.53;2.80;;;14.10;99.90;;;;;;5012894;28;20176;-75
2021/09/16 06:07:13;;;;;;;5.50;2.87;;;14.10;99.90;;;;;;5011624;28;20666;-75
2021/09/16 06:09:38;;;;;;;8.67;2.77;;;14.20;99.90;;;;;;5011082;28;20257;-75
2021/09/16 06:12:06;;;;;;;7.77;3.10;;;14.20;99.90;;;;;;4979019;28;20234;-73
2021/09/16 06:14:32;;;;;;;4.60;2.50;;;14.30;99.90;;;;;;4995312;28;20187;-73
2021/09/16 06:16:58;;;;;;;5.77;3.10;;;14.30;99.90;;;;;;4994865;28;20203;-73
2021/09/16 06:19:23;;;;;;;6.30;2.77;;;14.40;99.90;;;;;;5011116;28;20259;-73
2021/09/16 06:21:49;;;;;;;4.00;2.57;;;14.40;99.90;;;;;;5011400;28;20558;-75
2021/09/16 06:24:14;;;;;;;4.37;2.77;;;14.40;99.90;;;;;;5011400;28;20184;-77
2021/09/16 06:26:40;;;;;;;5.37;3.40;;;14.60;99.90;;;;;;5011167;28;20227;-76
2021/09/16 06:29:05;;;;;;;7.20;2.90;;;14.60;99.90;;;;;;4994728;28;20218;-79
2021/09/16 06:31:31;;;;;;;6.07;3.13;;;14.50;99.90;;;;;;4978728;28;20270;-79
2021/09/16 06:33:56;;;;;;;7.97;3.07;;;14.60;99.90;;;;;;5011367;28;20187;-79
2021/09/16 06:36:22;;;;;;;8.47;3.30;;;14.50;99.90;;;;;;4978668;28;20234;-79
2021/09/16 06:38:48;;;;;;;7.70;3.57;;;14.50;99.90;;;;;;5012366;28;20171;-78
2021/09/16 06:41:13;;;;;;;7.60;3.43;;;14.60;99.90;;;;;;4995054;28;20582;-75
2021/09/16 06:43:39;;;;;;;7.00;3.77;;;14.60;99.90;;;;;;4995049;28;20556;-75
2021/09/16 06:46:04;;;;;;;9.37;4.00;;;14.60;99.90;;;;;;5011567;28;20568;-76
2021/09/16 06:48:30;;;;;;;7.37;4.17;;;14.60;99.90;;;;;;4995292;28;20552;-75
2021/09/16 06:50:56;;;;;;;8.13;4.07;;;14.60;99.90;;;;;;5012308;28;20236;-79
2021/09/16 06:53:22;;;;;;;6.77;4.10;;;14.60;99.90;;;;;;4980093;28;20184;-76
2021/09/16 06:55:47;;;;;;;6.07;3.77;;;14.60;99.90;;;;;;4995577;28;20210;-76
2021/09/16 06:58:13;;;;;;;8.17;4.63;;;14.60;99.90;;;;;;4995910;28;20255;-77
2021/09/16 07:00:39;;;;;;;6.83;4.37;;;14.60;99.90;;;;;;4985122;28;20238;-80
2021/09/16 07:03:04;;;;;;;7.23;4.73;;;14.60;99.90;;;;;;4986602;28;20604;-79
2021/09/16 07:05:30;;;;;;;8.77;4.80;;;14.60;99.90;;;;;;4986825;28;20183;-80
2021/09/16 07:07:55;;;;;;;6.57;5.17;;;14.70;99.90;;;;;;4985917;28;20266;-80
2021/09/16 07:10:21;;;;;;;8.33;5.17;;;14.70;99.90;;;;;;4999314;28;20280;-80
2021/09/16 07:12:46;;;;;;;9.53;4.87;;;14.70;99.90;;;;;;5001762;28;20175;-80
2021/09/16 07:15:12;;;;;;;6.13;4.80;;;14.70;99.90;;;;;;5001873;28;20643;-80
2021/09/16 07:17:37;;;;;;;7.90;5.27;;;14.80;99.90;;;;;;5018006;28;20681;-80
2021/09/16 07:20:04;;;;;;;7.50;4.93;;;14.70;99.90;;;;;;4984917;28;20188;-79
2021/09/16 07:22:29;;;;;;;8.20;5.67;;;14.80;99.90;;;;;;4985365;28;20179;-80
2021/09/16 07:24:55;;;;;;;6.43;5.37;;;14.80;99.90;;;;;;5002645;28;20528;-79
2021/09/16 07:27:20;;;;;;;10.63;5.63;;;14.90;99.90;;;;;;5001349;28;20215;-79
2021/09/16 07:29:46;;;;;;;7.60;5.70;;;14.80;99.90;;;;;;5000608;28;20771;-80
2021/09/16 07:32:11;;;;;;;6.87;5.40;;;14.80;99.90;;;;;;4984775;28;20171;-80
2021/09/16 07:34:37;;;;;;;7.57;5.60;;;14.70;99.90;;;;;;4984752;28;20172;-79
2021/09/16 07:37:03;;;;;;;10.73;5.73;;;14.70;99.90;;;;;;4984281;28;20199;-80
2021/09/16 07:39:29;;;;;;;9.57;5.73;;;14.70;99.90;;;;;;5000870;28;20734;-80
2021/09/16 07:41:54;;;;;;;10.43;6.07;;;14.80;99.90;;;;;;4985055;28;20186;-80
2021/09/16 07:44:20;;;;;;;8.33;5.93;;;14.80;99.90;;;;;;4984315;28;20180;-78
2021/09/16 07:46:45;;;;;;;8.43;6.17;;;14.80;99.90;;;;;;4983191;28;20211;-79
2021/09/16 07:49:11;;;;;;;12.13;6.27;;;14.90;99.90;;;;;;4983359;28;20183;-81
2021/09/16 07:51:37;;;;;;;11.10;6.40;;;14.90;99.90;;;;;;4983659;28;20588;-78
2021/09/16 07:54:02;;;;;;;9.93;6.30;;;15.00;99.90;;;;;;4983743;28;20179;-78
2021/09/16 07:56:28;;;;;;;8.97;6.27;;;15.10;99.90;;;;;;4983611;28;20561;-78
2021/09/16 07:58:53;;;;;;;7.97;5.90;;;15.30;99.90;;;;;;4984865;28;20187;-79
2021/09/16 08:01:19;;;;;;;8.23;5.93;;;15.40;99.90;;;;;;5001532;28;20239;-80
2021/09/16 08:03:45;;;;;;;8.57;5.97;;;15.50;99.90;;;;;;5001492;28;20556;-80
2021/09/16 08:06:10;;;;;;;7.03;5.53;;;15.60;99.90;;;;;;5000938;28;20210;-80
2021/09/16 08:08:36;;;;;;;9.37;5.90;;;15.70;99.90;;;;;;5017248;28;20179;-76
2021/09/16 08:11:01;;;;;;;9.63;5.80;;;15.70;99.90;;;;;;4984660;28;20203;-80
2021/09/16 08:13:27;;;;;;;6.97;5.57;;;15.70;99.90;;;;;;5018081;28;20176;-80
2021/09/16 08:15:53;;;;;;;8.13;5.87;;;15.70;99.90;;;;;;5000705;28;20222;-80
2021/09/16 08:18:19;;;;;;;9.93;6.40;;;15.70;99.90;;;;;;4999345;28;20172;-79
2021/09/16 08:20:48;;;;;;;8.63;5.77;;;15.60;99.90;;;;;;5014407;28;20179;-76
2021/09/16 08:23:14;;;;;;;9.50;6.13;;;15.70;99.90;;;;;;4982095;28;20176;-77
2021/09/16 08:25:40;;;;;;;8.03;5.53;;;15.80;99.90;;;;;;4971212;28;20824;-76
2021/09/16 08:28:05;;;;;;;8.43;5.97;;;15.80;99.90;;;;;;4977683;28;20212;-75
2021/09/16 08:30:31;;;;;;;7.13;5.93;;;15.90;99.90;;;;;;4993451;28;20200;-75
2021/09/16 08:32:56;;;;;;;10.63;5.40;;;16.00;99.90;;;;;;4977735;28;20539;-76
2021/09/16 08:35:22;;;;;;;7.23;5.40;;;16.20;99.90;;;;;;4977802;28;20177;-77
2021/09/16 08:37:47;;;;;;;8.27;5.23;;;16.40;99.90;;;;;;4977694;28;20554;-76
2021/09/16 08:40:13;;;;;;;6.53;4.80;;;16.50;99.90;;;;;;4993702;28;20218;-75
2021/09/16 08:42:41;;;;;;;9.03;5.57;;;16.60;99.90;;;;;;4993696;28;20180;-76
2021/09/16 08:45:07;;;;;;;6.63;4.87;;;16.60;99.90;;;;;;4993717;28;20176;-76
2021/09/16 08:47:36;;;;;;;9.87;5.13;;;16.70;99.90;;;;;;4993664;28;20191;-76
2021/09/16 08:50:02;;;;;;;10.10;5.10;;;16.80;99.90;;;;;;4993418;28;20287;-77
2021/09/16 08:52:28;;;;;;;7.13;5.00;;;16.80;99.90;;;;;;4993286;28;20250;-77
2021/09/16 08:54:55;;;;;;;7.23;4.63;;;16.90;99.90;;;;;;4977300;28;20212;-76
2021/09/16 08:57:20;;;;;;;7.47;4.90;;;16.90;99.90;;;;;;4976993;28;20210;-76
2021/09/16 08:59:46;;;;;;;9.97;5.00;;;17.00;99.90;;;;;;4977083;28;20180;-76
2021/09/16 09:02:12;;;;;;;9.73;4.83;;;17.00;99.90;;;;;;4993332;28;20254;-76
2021/09/16 09:04:37;;;;;;;7.17;4.40;;;17.10;99.90;;;;;;4993402;28;20251;-77
2021/09/16 09:07:04;;;;;;;6.40;4.50;;;17.10;99.90;;;;;;4978764;28;20200;-77
2021/09/16 09:09:30;;;;;;;6.27;4.10;;;17.20;99.90;;;;;;4994553;28;20204;-77
2021/09/16 09:11:55;;;;;;;8.70;4.50;;;17.30;99.90;;;;;;4978928;28;20183;-78
2021/09/16 09:14:23;;;;;;;5.20;4.07;;;17.50;99.90;;;;;;4996075;28;20259;-77
2021/09/16 09:16:49;;;;;;;8.27;4.17;;;17.50;99.90;;;;;;4996352;28;20188;-78
2021/09/16 09:19:16;;;;;;;9.87;4.30;;;17.60;99.90;;;;;;4979896;28;20172;-79
2021/09/16 09:21:42;;;;;;;6.70;4.03;;;17.60;99.90;;;;;;4995955;28;20526;-78
2021/09/16 09:24:07;;;;;;;5.53;3.60;;;17.60;99.90;;;;;;4978626;28;20187;-79
2021/09/16 09:26:35;;;;;;;6.77;3.63;;;17.60;99.90;;;;;;4993786;28;20212;-77
2021/09/16 09:29:06;;;;;;;7.10;3.53;;;17.70;99.90;;;;;;4976532;28;20782;-77
2021/09/16 09:31:32;;;;;;;5.90;3.73;;;17.70;99.90;;;;;;4993869;28;20200;-74
2021/09/16 09:33:57;;;;;;;4.20;3.00;;;17.80;99.90;;;;;;4993107;28;20602;-76
2021/09/16 09:36:23;;;;;;;5.97;3.40;;;17.80;99.90;;;;;;4992720;28;20196;-76
2021/09/16 09:38:50;;;;;;;8.87;3.40;;;17.80;99.90;;;;;;4993751;28;20246;-76
2021/09/16 09:41:32;;;;;;;7.73;3.63;;;17.70;99.90;;;;;;5008001;28;20584;-76
2021/09/16 09:44:09;;;;;;;8.53;3.63;;;17.70;99.90;;;;;;4977045;28;20180;-76
2021/09/16 09:46:52;;;;;;;8.80;3.40;;;17.60;99.90;;;;;;4976563;28;20195;-77
2021/09/16 09:49:22;;;;;;;7.77;3.30;;;17.60;99.90;;;;;;4960205;28;20207;-77
2021/09/16 09:51:48;;;;;;;6.30;3.40;;;17.60;99.90;;;;;;4973798;28;20173;-76
2021/09/16 09:54:13;;;;;;;10.23;3.43;;;17.70;99.90;;;;;;4980820;28;20521;-77
2021/09/16 09:56:39;;;;;;;6.47;4.07;;;17.90;99.90;;;;;;4993494;28;20193;-77
2021/09/16 09:59:04;;;;;;;5.97;3.20;;;18.10;99.90;;;;;;4991989;28;20180;-77
2021/09/16 10:01:35;;;;;;;5.43;2.90;;;18.10;99.90;;;;;;4992384;28;20183;-77
2021/09/16 10:04:27;;;;;;;4.30;2.93;;;17.90;99.90;;;;;;4976228;28;20180;-77
2021/09/16 10:06:56;;;;;;;6.47;3.13;;;17.90;99.90;;;;;;4976010;28;20200;-77
2021/09/16 10:09:21;;;;;;;6.50;3.20;;;17.90;99.90;;;;;;4993069;28;20183;-77
2021/09/16 10:11:48;;;;;;;5.73;3.00;;;17.90;99.90;;;;;;4975974;28;20176;-77
2021/09/16 10:14:14;;;;;;;5.20;3.07;;;18.00;99.90;;;;;;4992487;28;20751;-77
2021/09/16 10:16:39;;;;;;;5.40;2.80;;;18.00;99.90;;;;;;4992292;28;20228;-77
2021/09/16 10:19:05;;;;;;;4.60;2.77;;;18.10;99.90;;;;;;4995683;28;20168;-77
2021/09/16 10:21:31;;;;;;;7.23;2.97;;;18.00;99.90;;;;;;4991992;28;20258;-76
2021/09/16 10:23:58;;;;;;;5.87;2.30;;;18.00;99.90;;;;;;4975832;28;20210;-76
2021/09/16 10:26:33;;;;;;;5.50;2.40;;;18.00;99.90;;;;;;4975744;28;20302;-76
2021/09/16 10:28:58;;;;;;;6.80;2.80;;;18.00;99.90;;;;;;5002015;28;20265;-76
2021/09/16 10:31:25;;;;;;;7.00;2.90;;;18.00;99.90;;;;;;4981132;28;20295;-76
2021/09/16 10:33:51;;;;;;;8.57;2.73;;;17.90;99.90;;;;;;4975457;28;20266;-76
2021/09/16 10:36:17;;;;;;;6.33;2.70;;;18.00;99.90;;;;;;4991770;28;20840;-77
2021/09/16 10:38:46;;;;;;;6.70;2.47;;;18.10;99.90;;;;;;4975451;28;20207;-76
2021/09/16 10:41:19;;;;;;;5.33;2.70;;;18.20;99.90;;;;;;4991935;28;20702;-76
2021/09/16 10:43:47;;;;;;;5.57;2.50;;;18.20;99.90;;;;;;4992837;28;20217;-76
2021/09/16 10:46:29;;;;;;;6.83;2.30;;;18.30;99.90;;;;;;4975508;28;20695;-76
2021/09/16 10:48:55;;;;;;;7.30;3.07;;;18.40;99.90;;;;;;4991903;28;20625;-79
2021/09/16 10:51:41;;;;;;;7.30;2.87;;;18.40;99.90;;;;;;4960193;28;20301;-78
2021/09/16 10:54:27;;;;;;;9.63;2.83;;;18.70;99.90;;;;;;4993137;28;20174;-78
2021/09/16 10:57:11;;;;;;;4.13;2.27;;;19.00;99.90;;;;;;4992936;28;20683;-78
2021/09/16 10:59:52;;;;;;;6.40;2.40;;;19.10;99.90;;;;;;4992374;28;20583;-78
2021/09/16 11:02:22;;;;;;;4.37;2.10;;;19.20;99.90;;;;;;4995719;28;20176;-80
2021/09/16 11:07:34;;;;;;;5.73;2.37;;;19.10;99.90;;;;;;4995293;28;20546;-79
2021/09/16 11:10:24;;;;;;;6.07;3.00;;;19.00;99.90;;;;;;4993623;28;20211;-78
2021/09/16 11:13:05;;;;;;;3.60;2.50;;;19.00;99.90;;;;;;4979746;28;20187;-80
2021/09/16 11:15:33;;;;;;;7.13;2.33;;;19.10;99.90;;;;;;4979857;28;20203;-78
2021/09/16 11:18:03;;;;;;;6.23;1.87;;;19.50;99.90;;;;;;4978547;28;20593;-79
2021/09/16 11:20:28;;;;;;;3.00;1.33;;;19.70;99.90;;;;;;4962099;28;20180;-78
2021/09/16 11:22:54;;;;;;;3.97;1.43;;;19.70;99.90;;;;;;4976258;28;20674;-78
2021/09/16 11:25:20;;;;;;;3.17;1.33;;;19.60;99.90;;;;;;4991412;28;20663;-78
2021/09/16 11:27:45;;;;;;;4.33;1.60;;;19.50;99.90;;;;;;4991720;28;20562;-78
2021/09/16 11:30:18;;;;;;;2.37;1.03;;;19.30;99.90;;;;;;4992247;28;20208;-78
2021/09/16 11:32:44;;;;;;;3.60;1.30;;;19.00;99.90;;;;;;4976625;28;20199;-77
2021/09/16 11:35:17;;;;;;;5.33;1.40;;;18.90;99.90;;;;;;4991718;28;20180;-82
2021/09/16 11:37:50;;;;;;;2.77;1.03;;;18.80;99.90;;;;;;4988009;28;20245;-78
2021/09/16 11:40:24;;;;;;;2.07;0.90;;;18.80;99.90;;;;;;4974091;28;20668;-78
2021/09/16 11:42:51;;;;;;;1.70;0.83;;;18.80;99.90;;;;;;4991459;28;20181;-76
2021/09/16 11:45:30;;;;;;;4.77;0.97;;;19.00;99.90;;;;;;4991664;28;20176;-77
2021/09/16 11:47:57;;;;;;;1.73;1.00;;;19.10;99.90;;;;;;4971230;28;20176;-77
2021/09/16 11:50:41;;;;;;;5.10;1.00;;;19.30;99.90;;;;;;4978088;28;20211;-80
2021/09/16 11:53:08;;;;;;;2.27;0.90;;;19.30;99.90;;;;;;4994398;28;20191;-77
2021/09/16 11:55:35;;;;;;;2.43;1.00;;;19.20;99.90;;;;;;4994695;28;20675;-77
2021/09/16 11:58:04;;;;;;;1.83;0.80;;;19.10;99.90;;;;;;4978080;28;20184;-77
2021/09/16 12:00:35;;;;;;;3.90;1.10;;;19.00;99.90;;;;;;4991879;28;20200;-77
2021/09/16 12:03:03;;;;;;;3.20;0.87;;;18.80;99.90;;;;;;4996277;28;20738;-77
2021/09/16 12:05:40;;;;;;;2.97;1.10;;;18.80;99.90;;;;;;4973421;28;20172;-77
2021/09/16 12:08:08;;;;;;;2.03;0.80;;;18.80;99.90;;;;;;4995679;28;20211;-77
2021/09/16 12:10:57;;;;;;;3.17;0.70;;;18.90;99.90;;;;;;4994152;28;20213;-77
2021/09/16 12:13:31;;;;;;;4.40;0.73;;;19.00;99.90;;;;;;4993370;28;20203;-77
2021/09/16 12:16:11;;;;;;;2.13;0.60;;;19.10;99.90;;;;;;4997960;28;20234;-77
2021/09/16 12:18:39;;;;;;;4.93;0.87;;;19.30;99.90;;;;;;5013385;28;20175;-77
2021/09/16 12:21:05;;;;;;;1.90;0.70;;;19.40;99.90;;;;;;5001761;28;20176;-77
2021/09/16 12:23:31;;;;;;;5.80;0.80;;;19.40;99.90;;;;;;4997410;28;20229;-77
2021/09/16 12:26:16;;;;;;;3.70;1.03;;;19.40;99.90;;;;;;4979415;28;20582;-77
2021/09/16 12:28:57;;;;;;;3.23;0.80;;;19.30;99.90;;;;;;4993334;28;20164;-77
2021/09/16 12:31:28;;;;;;;1.63;0.60;;;19.20;99.90;;;;;;4994359;28;20550;-77
2021/09/16 12:34:16;;;;;;;1.77;0.80;;;19.00;99.90;;;;;;4995723;28;20183;-77
2021/09/16 12:37:07;;;;;;;2.17;0.80;;;18.90;99.90;;;;;;4996007;28;20212;-76
2021/09/16 12:39:43;;;;;;;2.07;0.77;;;18.90;99.90;;;;;;4976463;28;20232;-76
2021/09/16 12:42:09;;;;;;;1.67;1.07;;;18.90;99.90;;;;;;4974091;28;20172;-77
2021/09/16 12:44:36;;;;;;;2.30;0.90;;;19.00;99.90;;;;;;4995802;28;20168;-77
2021/09/16 12:47:05;;;;;;;3.57;0.80;;;19.30;99.90;;;;;;4974292;28;20217;-77